METAR Data
IDs: Format: Raw Decoded Include TAF

Data at: 0027 UTC 26 Oct 2021

KPYX 260015Z AUTO 15013KT 10SM CLR 21/06 A2988 RMK AO2 T02100061
KPYX 252355Z AUTO 15013KT 10SM CLR 22/06 A2988 RMK AO2 T02190060 10258 20195
KPYX 252335Z AUTO 15014G18KT 10SM CLR 23/06 A2987 RMK AO2 T02280060
KPYX 252315Z AUTO 16018G21KT 10SM CLR 24/06 A2988 RMK AO2 T02390058
KPYX 252255Z AUTO 16016G23KT 10SM CLR 25/06 A2988 RMK AO2 T02450055
KPYX 252235Z AUTO 17018G24KT 10SM CLR 25/05 A2988 RMK AO2 T02510053
KPYX 252215Z AUTO 16018G22KT 10SM CLR 26/05 A2988 RMK AO2 T02550049
KPYX 252155Z AUTO 16016G23KT 10SM CLR 26/05 A2989 RMK AO2 T02570048
KPYX 252135Z AUTO 16018G23KT 10SM CLR 25/05 A2990 RMK AO2 T02540054
KPYX 252115Z AUTO 17016G24KT 10SM CLR 25/05 A2990 RMK AO2 T02540050
KPYX 252055Z AUTO 16017G23KT 10SM CLR 25/05 A2991 RMK AO2 T02500053
KPYX 252035Z AUTO 15018G23KT 10SM CLR 25/06 A2991 RMK AO2 T02460058
KPYX 252015Z AUTO 16017G23KT 10SM CLR 24/06 A2992 RMK AO2 T02420057
KPYX 251955Z AUTO 16017G23KT 10SM CLR 23/06 A2992 RMK AO2 T02340055
KPYX 251935Z AUTO 15017G21KT 10SM CLR 23/06 A2994 RMK AO2 T02300056
KPYX 251915Z AUTO 16017G22KT 10SM CLR 22/06 A2995 RMK AO2 T02150057
KPYX 251855Z AUTO 15015G22KT 10SM CLR 21/06 A2996 RMK AO2 T02110064
KPYX 251835Z AUTO 15017KT 10SM CLR 20/07 A2997 RMK AO2 T02020065
KPYX 251815Z AUTO 15019KT 10SM CLR 20/07 A2997 RMK AO2 T01960065
KPYX 251755Z AUTO 15020G25KT 10SM CLR 20/06 A2999 RMK AO2 T02010064 10201 20065
KPYX 251735Z AUTO 15018G22KT 10SM CLR 20/06 A3000 RMK AO2 T01980061
KPYX 251715Z AUTO 16016G22KT 10SM CLR 19/07 A3000 RMK AO2 T01940067
KPYX 251655Z AUTO 15014G18KT 10SM CLR 19/07 A3001 RMK AO2 T01860070
KPYX 251635Z AUTO 14015KT 10SM CLR 16/06 A3002 RMK AO2 T01610062
KPYX 251615Z AUTO 14015KT 10SM CLR 15/06 A3002 RMK AO2 T01510059
KPYX 251555Z AUTO 13014KT 10SM CLR 14/06 A3003 RMK AO2 T01410058
KPYX 251535Z AUTO 12012KT 10SM CLR 13/06 A3003 RMK AO2 T01330058
KPYX 251515Z AUTO 12011KT 10SM CLR 12/06 A3004 RMK AO2 T01210055
KPYX 251455Z AUTO 12011KT 10SM CLR 11/05 A3004 RMK AO2 T01100047
KPYX 251435Z AUTO 11008KT 10SM CLR 11/04 A3004 RMK AO2 T01100044
KPYX 251415Z AUTO 12008KT 10SM CLR 11/04 A3003 RMK AO2 T01080044
KPYX 251355Z AUTO 12008KT 10SM CLR 10/04 A3003 RMK AO2 T00980041
KPYX 251335Z AUTO 12006KT 10SM CLR 08/04 A3002 RMK AO2 T00840037
KPYX 251315Z AUTO 12006KT 10SM CLR 08/03 A3002 RMK AO2 T00750034
KPYX 251255Z AUTO 12004KT 10SM CLR 07/03 A3002 RMK AO2 T00660029
KPYX 251235Z AUTO 13004KT 10SM CLR 07/03 A3002 RMK AO2 T00670028
KPYX 251215Z AUTO 14003KT 10SM CLR 08/03 A3002 RMK AO2 T00750028
KPYX 251155Z AUTO 11006KT 10SM CLR 08/03 A3001 RMK AO2 T00760031 10108 20062
KPYX 251135Z AUTO 10006KT 10SM CLR 08/03 A3000 RMK AO2 T00770031
KPYX 251115Z AUTO 09007KT 10SM CLR 07/03 A3000 RMK AO2 T00720030
KPYX 251055Z AUTO 09006KT 10SM CLR 06/02 A3000 RMK AO2 T00630024
KPYX 251035Z AUTO 09003KT 10SM CLR 06/03 A3000 RMK AO2 T00630025
KPYX 251015Z AUTO 13003KT 10SM CLR 08/03 A3000 RMK AO2 T00800027
KPYX 250955Z AUTO 15004KT 10SM CLR 07/02 A3000 RMK AO2 T00740021
KPYX 250935Z AUTO 00000KT 10SM CLR 07/02 A3000 RMK AO2 T00700021
KPYX 250915Z AUTO 00000KT 10SM CLR 08/02 A3001 RMK AO2 T00770022
KPYX 250855Z AUTO 15003KT 3SM CLR 08/03 A3000 RMK AO2 T00770025
KPYX 250835Z AUTO 16004KT 10SM CLR 08/02 A3000 RMK AO2 T00770021
KPYX 250815Z AUTO 17004KT 4SM CLR 08/02 A2999 RMK AO2 T00790020
KPYX 250755Z AUTO 12003KT 10SM CLR 08/03 A2999 RMK AO2 T00800026
KPYX 250735Z AUTO 14003KT 7SM CLR 09/03 A2999 RMK AO2 T00890025
KPYX 250715Z AUTO 13003KT 10SM CLR 09/02 A2998 RMK AO2 T00890024
KPYX 250655Z AUTO 12005KT 10SM CLR 10/03 A2997 RMK AO2 T01010027
KPYX 250635Z AUTO 11006KT 10SM CLR 11/03 A2997 RMK AO2 T01050026
KPYX 250615Z AUTO 09006KT 5SM CLR 10/03 A2997 RMK AO2 T00970025
KPYX 250555Z AUTO 11006KT 10SM CLR 11/03 A2997 RMK AO2 T01100025 10190 20108 402350088
KPYX 250535Z AUTO 11006KT 10SM CLR 11/03 A2997 RMK AO2 T01080025
KPYX 250515Z AUTO 11006KT 10SM 12/02 A2997 RMK AO2 T01150024
KPYX 250455Z AUTO 11006KT 10SM CLR 12/02 A2997 RMK AO2 T01170022
KPYX 250435Z AUTO 11008KT 10SM CLR 12/02 A2997 RMK AO2 T01160021
KPYX 250415Z AUTO 11006KT 10SM CLR 12/02 A2996 RMK AO2 T01220022
KPYX 250355Z AUTO 11007KT 10SM CLR 12/02 A2996 RMK AO2 T01200021
KPYX 250335Z AUTO 11007KT 7SM CLR 12/02 A2997 RMK AO2 T01240020
KPYX 250315Z AUTO 10007KT 7SM CLR 13/02 A2996 RMK AO2 T01270020
KPYX 250255Z AUTO 11007KT 10SM CLR 13/02 A2996 RMK AO2 T01300020
KPYX 250235Z AUTO 12007KT 10SM CLR 13/02 A2995 RMK AO2 T01310018
KPYX 250215Z AUTO 12006KT 10SM CLR 14/02 A2995 RMK AO2 T01370017
KPYX 250155Z AUTO 11005KT 10SM CLR 15/01 A2995 RMK AO2 T01450014
KPYX 250135Z AUTO 09006KT 10SM CLR 13/02 A2993 RMK AO2 T01330017
KPYX 250115Z AUTO 10004KT 7SM CLR 13/02 A2992 RMK AO2 T01250016
KPYX 250055Z AUTO 07004KT 3SM CLR 17/01 A2991 RMK AO2 T01680005
KPYX 250035Z AUTO 05005KT 4SM CLR 17/01 A2990 RMK AO2 T01700005
KPYX 250015Z AUTO 04008KT 7SM CLR 18/01 A2990 RMK AO2 T01770011
KPYX 242355Z AUTO 00000KT 5SM CLR 19/01 A2990 RMK AO2 T01920011 10235 20178
KPYX 242335Z AUTO 01003KT 10SM CLR 22/01 A2990 RMK AO2 T02170005
KPYX 242315Z AUTO 34008KT 10SM CLR 23/01 A2989 RMK AO2 T02250005
KPYX 242255Z AUTO 33006KT 10SM CLR 23/00 A2989 RMK AO2 T02290003
KPYX 242235Z AUTO 01005KT 10SM CLR 23/01 A2988 RMK AO2 T02320007
KPYX 242215Z AUTO 34007KT 10SM CLR 24/01 A2987 RMK AO2 T02350012
KPYX 242155Z AUTO 34006KT 10SM CLR 24/01 A2986 RMK AO2 T02350012
KPYX 242135Z AUTO 36006KT 10SM CLR 23/02 A2985 RMK AO2 T02310019
KPYX 242115Z AUTO 34006KT 10SM CLR 23/02 A2985 RMK AO2 T02330022
KPYX 242055Z AUTO 33011G14KT 10SM CLR 23/03 A2985 RMK AO2 T02320028
KPYX 242035Z AUTO 33012KT 10SM CLR 23/04 A2984 RMK AO2 T02300038
KPYX 242015Z AUTO 34011G15KT 10SM CLR 23/04 A2984 RMK AO2 T02260042
KPYX 241955Z AUTO 32012G17KT 10SM CLR 22/05 A2985 RMK AO2 T02200047
KPYX 241935Z AUTO 35010G15KT 10SM CLR 22/05 A2984 RMK AO2 T02190050
KPYX 241915Z AUTO 34010G16KT 10SM CLR 21/06 A2985 RMK AO2 T02110063
KPYX 241855Z AUTO 32011G18KT 10SM CLR 21/07 A2985 RMK AO2 T02050071
KPYX 241835Z AUTO 34011G20KT 10SM CLR 20/07 A2986 RMK AO2 T01950071
KPYX 241815Z AUTO 32011G16KT 10SM CLR 19/08 A2986 RMK AO2 T01850081
KPYX 241755Z AUTO 30011G18KT 10SM CLR 18/08 A2986 RMK AO2 T01760080 10176 20088
KPYX 241735Z AUTO 33013G20KT 10SM CLR 17/08 A2986 RMK AO2 T01660080
KPYX 241715Z AUTO 32012KT 10SM CLR 16/08 A2986 RMK AO2 T01590083
KPYX 241655Z AUTO 33014KT 10SM CLR 15/08 A2985 RMK AO2 T01500081
KPYX 241635Z AUTO 31014G18KT 10SM CLR 13/08 A2986 RMK AO2 T01320078
KPYX 241615Z AUTO 31013G20KT 10SM SCT013 12/08 A2984 RMK AO2 T01230075
KPYX 241555Z AUTO 32015KT 10SM SCT013 12/08 A2983 RMK AO2 T01220077
KPYX 241535Z AUTO 30012KT 10SM CLR 12/08 A2983 RMK AO2 T01160081
KPYX 241515Z AUTO 30012KT 10SM CLR 11/08 A2982 RMK AO2 T01120081
KPYX 241455Z AUTO 31012KT 10SM CLR 11/08 A2981 RMK AO2 T01120081
KPYX 241435Z AUTO 32013KT 10SM CLR 11/08 A2979 RMK AO2 T01100082
KPYX 241415Z AUTO 32012KT 10SM CLR 10/08 A2977 RMK AO2 T01040083
KPYX 241355Z AUTO 31011KT 10SM CLR 10/08 A2977 RMK AO2 T01020082
KPYX 241335Z AUTO 31013KT 10SM CLR 10/09 A2975 RMK AO2 T01030085
KPYX 241315Z AUTO 31009KT 10SM CLR 09/08 A2974 RMK AO2 T00930077
KPYX 241255Z AUTO 30008KT 10SM CLR 09/08 A2973 RMK AO2 T00910077
KPYX 241235Z AUTO 30007KT 7SM CLR 09/07 A2972 RMK AO2 T00900074